Time;durP1;ratioP1;P1;durP2;ratioP2;P2;SDS_P1;SDS_P2;PMS_P1;PMS_P2;Temp;Humidity;BMP_temperature;BMP_pressure;BME280_temperature;BME280_humidity;BME280_pressure;Samples;Min_cycle;Max_cycle;Signal;HPM_P1;HPM_P2
2023/12/12 00:03:16;;;;;;;10.70;3.10;;;;;;;10.63;76.63;99543.56;10332497;28;20150;-66
2023/12/12 00:08:18;;;;;;;7.38;2.72;;;;;;;10.63;76.80;99556.88;10329267;28;20086;-66
2023/12/12 00:13:19;;;;;;;12.85;3.05;;;;;;;10.56;77.10;99538.81;10334598;28;20073;-68
2023/12/12 00:18:21;;;;;;;12.75;3.28;;;;;;;10.50;77.45;99531.41;10319113;28;20058;-68
2023/12/12 00:23:22;;;;;;;12.48;4.15;;;;;;;10.54;77.99;99529.31;10306953;28;20061;-68
2023/12/12 00:28:24;;;;;;;10.35;3.13;;;;;;;10.51;79.00;99530.44;10320874;28;20434;-68
2023/12/12 00:33:29;;;;;;;11.50;3.70;;;;;;;10.49;78.97;99529.72;10296835;28;20936;-67
2023/12/12 00:38:30;;;;;;;12.18;3.25;;;;;;;10.48;79.58;99536.03;10301444;28;20047;-67
2023/12/12 00:43:32;;;;;;;13.43;3.58;;;;;;;10.52;79.41;99540.06;10302993;28;20074;-66
2023/12/12 00:48:34;;;;;;;11.90;3.63;;;;;;;10.49;79.91;99537.69;10304631;28;20133;-67
2023/12/12 00:53:36;;;;;;;10.07;3.00;;;;;;;10.46;80.05;99524.66;10300444;28;20093;-67
2023/12/12 00:58:37;;;;;;;8.75;3.00;;;;;;;10.48;79.94;99514.75;10284219;28;20825;-67
2023/12/12 01:03:39;;;;;;;11.63;3.30;;;;;;;10.51;79.86;99525.09;10293878;28;20042;-67
2023/12/12 01:08:40;;;;;;;11.30;3.85;;;;;;;10.50;79.51;99515.44;10286593;28;20709;-66
2023/12/12 01:13:42;;;;;;;10.35;3.17;;;;;;;10.39;79.92;99520.91;10307195;28;20495;-66
2023/12/12 01:18:44;;;;;;;16.92;3.80;;;;;;;10.38;80.38;99524.53;10302257;28;20054;-67
2023/12/12 01:23:55;;;;;;;14.38;3.67;;;;;;;10.42;80.83;99531.28;10301844;28;20060;-66
2023/12/12 01:28:56;;;;;;;6.72;2.78;;;;;;;10.50;80.08;99515.44;10298280;28;20200;-68
2023/12/12 01:33:57;;;;;;;11.05;3.58;;;;;;;10.43;79.93;99501.00;10307783;28;20133;-67
2023/12/12 01:39:01;;;;;;;11.63;3.22;;;;;;;10.48;80.57;99503.25;10289966;28;20240;-66
2023/12/12 01:44:02;;;;;;;12.70;3.95;;;;;;;10.44;80.97;99508.00;10295266;28;20149;-66
2023/12/12 01:49:05;;;;;;;9.35;3.90;;;;;;;10.45;81.46;99520.34;10295588;28;20050;-66
2023/12/12 01:54:06;;;;;;;12.20;3.42;;;;;;;10.48;81.24;99509.41;10301912;28;20205;-67
2023/12/12 01:59:08;;;;;;;15.13;3.72;;;;;;;10.51;81.28;99506.47;10290738;28;21060;-67
2023/12/12 02:04:11;;;;;;;10.43;3.33;;;;;;;10.55;81.02;99497.25;10303431;28;20070;-66
2023/12/12 02:09:12;;;;;;;11.82;3.03;;;;;;;10.59;80.92;99501.28;10287716;28;20051;-66
2023/12/12 02:14:14;;;;;;;10.98;3.83;;;;;;;10.60;80.87;99499.47;10300392;28;20058;-66
2023/12/12 02:19:17;;;;;;;11.10;4.10;;;;;;;10.58;80.84;99499.63;10298802;28;20058;-66
2023/12/12 02:24:19;;;;;;;10.57;3.20;;;;;;;10.56;81.18;99506.03;10284793;28;20050;-67
2023/12/12 02:29:21;;;;;;;13.10;3.10;;;;;;;10.57;81.62;99508.56;10294548;28;20054;-67
2023/12/12 02:34:23;;;;;;;10.88;3.30;;;;;;;10.58;81.85;99498.75;10280772;28;20068;-66
2023/12/12 02:39:24;;;;;;;17.38;5.18;;;;;;;10.63;81.93;99506.31;10298204;28;20070;-65
2023/12/12 02:44:26;;;;;;;12.70;3.28;;;;;;;10.38;81.91;99466.00;10293426;28;20149;-65
2023/12/12 02:49:27;;;;;;;10.40;3.50;;;;;;;10.63;82.28;99500.97;10295258;28;20066;-66
2023/12/12 02:54:29;;;;;;;12.30;3.10;;;;;;;10.61;82.11;99498.47;10299046;28;20135;-65
2023/12/12 02:59:30;;;;;;;15.93;4.40;;;;;;;10.54;82.43;99500.88;10296430;28;20827;-66
2023/12/12 03:04:32;;;;;;;14.50;3.63;;;;;;;10.51;82.43;99493.16;10305349;28;20052;-67
2023/12/12 03:09:34;;;;;;;8.68;2.92;;;;;;;10.41;82.42;99493.16;10283257;28;20067;-65
2023/12/12 03:14:37;;;;;;;10.88;3.08;;;;;;;10.37;83.00;99512.22;10273430;28;20060;-66
2023/12/12 03:19:38;;;;;;;11.32;3.40;;;;;;;10.38;83.36;99509.41;10308820;28;20281;-65
2023/12/12 03:24:41;;;;;;;9.50;3.30;;;;;;;10.35;83.22;99503.53;10296599;28;20142;-65
2023/12/12 03:29:44;;;;;;;10.35;3.58;;;;;;;10.38;83.24;99503.25;10274709;28;20069;-66
2023/12/12 03:34:46;;;;;;;9.57;3.10;;;;;;;10.39;82.96;99511.09;10294969;28;20089;-66
2023/12/12 03:39:48;;;;;;;11.20;3.85;;;;;;;10.41;82.89;99513.63;10296823;28;20054;-66
2023/12/12 03:44:49;;;;;;;12.10;4.30;;;;;;;10.34;83.10;99518.66;10291712;28;20732;-67
2023/12/12 03:49:50;;;;;;;10.48;3.08;;;;;;;10.34;83.38;99517.81;10295661;28;20065;-65
2023/12/12 03:54:53;;;;;;;12.55;3.35;;;;;;;10.25;83.31;99511.47;10296834;28;20085;-66
2023/12/12 03:59:55;;;;;;;11.05;3.63;;;;;;;10.31;83.48;99518.06;10295314;28;20509;-67
2023/12/12 04:04:56;;;;;;;17.25;4.18;;;;;;;10.27;83.34;99513.03;10287886;28;20055;-67
2023/12/12 04:09:57;;;;;;;11.75;3.45;;;;;;;10.25;83.46;99509.69;10305498;28;20132;-65
2023/12/12 04:14:59;;;;;;;9.57;2.80;;;;;;;10.20;83.45;99506.56;10315678;28;20058;-66
2023/12/12 04:20:05;;;;;;;;;;;;;;;10.15;84.08;99498.19;10281562;28;20051;-66
2023/12/12 04:25:07;;;;;;;14.15;3.53;;;;;;;10.12;84.33;99498.47;10295850;28;19922;-66
2023/12/12 04:30:10;;;;;;;12.30;3.42;;;;;;;10.08;84.08;99481.94;10295400;28;20137;-66
2023/12/12 04:35:14;;;;;;;8.57;3.33;;;;;;;10.17;84.30;99488.25;10295493;28;20045;-68
2023/12/12 04:40:16;;;;;;;11.85;3.42;;;;;;;10.11;84.38;99475.50;10292124;28;20060;-66
2023/12/12 04:45:18;;;;;;;12.30;3.72;;;;;;;10.02;84.70;99476.34;10291636;28;20043;-66
2023/12/12 04:50:20;;;;;;;12.60;3.70;;;;;;;9.97;85.40;99467.94;10290993;28;20061;-67
2023/12/12 04:55:21;;;;;;;10.82;4.50;;;;;;;9.87;85.01;99458.13;10300682;28;20404;-66
2023/12/12 05:00:26;;;;;;;;;;;;;;;9.97;84.96;99462.63;10288243;28;20054;-67
2023/12/12 05:05:27;;;;;;;13.38;3.95;;;;;;;9.86;85.40;99445.84;10293378;28;19926;-67
2023/12/12 05:10:28;;;;;;;12.38;4.30;;;;;;;9.89;85.61;99456.19;10290292;28;20662;-67
2023/12/12 05:15:31;;;;;;;11.63;3.92;;;;;;;9.82;86.06;99448.91;10275784;28;20143;-67
2023/12/12 05:20:33;;;;;;;11.15;4.00;;;;;;;9.77;86.63;99456.44;10286187;28;20111;-67
2023/12/12 05:25:36;;;;;;;10.55;3.72;;;;;;;9.73;86.47;99447.91;10297145;28;20092;-67
2023/12/12 05:30:38;;;;;;;14.27;4.05;;;;;;;9.70;86.77;99443.72;10290490;28;20486;-66
2023/12/12 05:35:41;;;;;;;15.03;4.10;;;;;;;9.64;87.05;99454.91;10292668;28;20555;-67
2023/12/12 05:40:43;;;;;;;14.55;4.55;;;;;;;9.58;87.67;99446.63;10305121;28;20066;-66
2023/12/12 05:45:45;;;;;;;13.73;4.25;;;;;;;9.51;87.86;99441.84;10294513;28;20054;-67
2023/12/12 05:50:47;;;;;;;13.02;4.63;;;;;;;9.50;88.45;99436.69;10285418;28;20507;-66
2023/12/12 05:55:49;;;;;;;12.73;3.97;;;;;;;9.47;88.49;99443.13;10295811;28;20056;-66
2023/12/12 06:00:51;;;;;;;15.70;5.40;;;;;;;9.44;88.39;99429.25;10303448;28;20132;-65
2023/12/12 06:05:53;;;;;;;13.50;4.47;;;;;;;9.41;88.79;99435.66;10297163;28;20498;-66
2023/12/12 06:10:55;;;;;;;14.75;4.97;;;;;;;9.36;89.17;99422.81;10290296;28;20053;-66
2023/12/12 06:15:57;;;;;;;15.52;5.15;;;;;;;9.43;88.97;99425.78;10303350;28;20128;-66
2023/12/12 06:20:59;;;;;;;15.00;4.00;;;;;;;9.48;88.95;99426.19;10303057;28;20742;-66
2023/12/12 06:26:02;;;;;;;12.10;4.78;;;;;;;9.50;88.93;99421.59;10298653;28;20061;-66
2023/12/12 06:31:04;;;;;;;12.10;4.78;;;;;;;9.45;88.81;99410.53;10296816;28;20532;-67
2023/12/12 06:36:06;;;;;;;9.55;3.33;;;;;;;9.46;89.56;99414.88;10282496;28;20555;-66
2023/12/12 06:41:08;;;;;;;16.08;4.93;;;;;;;9.51;89.00;99414.47;10309583;28;20048;-66
2023/12/12 06:46:11;;;;;;;13.30;4.30;;;;;;;9.38;89.71;99412.03;10297236;28;20455;-66
2023/12/12 06:51:15;;;;;;;14.18;4.15;;;;;;;9.33;89.71;99412.44;10303471;28;20828;-66
2023/12/12 06:56:16;;;;;;;12.88;4.68;;;;;;;9.37;89.59;99418.34;10295878;28;20166;-64
2023/12/12 07:01:19;;;;;;;10.50;4.22;;;;;;;9.27;90.09;99412.16;10304159;28;20050;-66
2023/12/12 07:06:25;;;;;;;15.15;5.35;;;;;;;9.31;89.99;99417.06;10322805;28;20130;-65
2023/12/12 07:11:27;;;;;;;10.20;3.67;;;;;;;9.36;90.26;99408.69;10294375;28;20146;-65
2023/12/12 07:16:30;;;;;;;14.95;5.50;;;;;;;9.30;89.96;99396.78;10312221;28;20057;-66
2023/12/12 07:21:41;;;;;;;15.45;4.50;;;;;;;9.39;89.70;99408.41;10291194;28;20504;-65
2023/12/12 07:26:45;;;;;;;13.55;4.43;;;;;;;9.31;89.72;99414.41;10295657;28;20050;-66
2023/12/12 07:31:50;;;;;;;13.50;4.97;;;;;;;9.19;90.53;99411.03;10299369;28;20056;-66
2023/12/12 07:36:52;;;;;;;14.93;5.18;;;;;;;9.15;91.05;99406.94;10304367;28;20061;-68
2023/12/12 07:41:55;;;;;;;15.10;5.47;;;;;;;9.18;91.39;99404.03;10294226;28;20054;-67
2023/12/12 07:47:01;;;;;;;15.15;5.20;;;;;;;9.28;91.07;99400.56;10283734;28;20039;-67
2023/12/12 07:52:04;;;;;;;15.38;5.65;;;;;;;9.24;90.57;99375.25;10297711;28;20077;-66
2023/12/12 07:57:06;;;;;;;13.48;6.03;;;;;;;9.35;90.18;99378.66;10293279;28;20054;-68
2023/12/12 08:02:08;;;;;;;16.70;6.15;;;;;;;9.35;90.02;99372.47;10296528;28;20073;-66
2023/12/12 08:07:09;;;;;;;14.93;5.43;;;;;;;9.40;89.66;99385.34;10316651;28;20562;-66
2023/12/12 08:12:11;;;;;;;12.73;4.53;;;;;;;9.42;89.24;99386.06;10267741;28;20060;-68
2023/12/12 08:17:12;;;;;;;16.95;5.82;;;;;;;9.48;89.07;99393.47;10296928;28;20089;-66
2023/12/12 08:22:14;;;;;;;14.50;6.07;;;;;;;9.55;88.92;99399.94;10274782;28;20116;-65
2023/12/12 08:27:18;;;;;;;15.63;7.03;;;;;;;9.62;88.64;99398.38;10313027;28;20056;-67
2023/12/12 08:32:20;;;;;;;12.52;6.13;;;;;;;9.66;87.81;99394.47;10293597;28;20057;-66
2023/12/12 08:37:22;;;;;;;16.65;7.47;;;;;;;9.57;88.08;99407.75;10278727;28;20065;-66
2023/12/12 08:42:25;;;;;;;17.42;7.22;;;;;;;9.54;88.46;99406.22;10289115;28;20056;-66
2023/12/12 08:47:29;;;;;;;16.35;6.55;;;;;;;9.45;89.30;99407.88;10290480;28;20065;-66
2023/12/12 08:52:32;;;;;;;15.82;7.07;;;;;;;9.42;89.55;99386.88;10297071;28;20134;-65
2023/12/12 08:57:39;;;;;;;17.85;7.00;;;;;;;9.72;89.32;99385.09;10282228;28;20057;-66
2023/12/12 09:02:42;;;;;;;12.10;7.45;;;;;;;9.89;88.91;99376.44;10302822;28;20127;-66
2023/12/12 09:07:44;;;;;;;16.45;6.10;;;;;;;9.96;88.56;99375.88;10297650;28;20050;-67
2023/12/12 09:12:45;;;;;;;14.25;5.00;;;;;;;10.02;88.99;99370.00;10296501;28;20089;-67
2023/12/12 09:17:48;;;;;;;12.45;5.25;;;;;;;10.04;88.68;99357.38;10297302;28;20175;-68
2023/12/12 09:23:09;;;;;;;17.75;5.70;;;;;;;9.92;88.59;99322.13;10298354;28;20046;-67
2023/12/12 09:28:11;;;;;;;12.13;5.65;;;;;;;10.01;88.88;99339.91;10289604;28;20050;-66
2023/12/12 09:33:12;;;;;;;9.88;5.60;;;;;;;10.03;88.98;99302.56;10294721;28;20057;-65
2023/12/12 09:38:14;;;;;;;15.02;5.72;;;;;;;10.07;88.63;99280.00;10311127;28;20093;-67
2023/12/12 09:43:17;;;;;;;17.35;6.40;;;;;;;10.18;88.45;99292.31;10304357;28;20084;-66
2023/12/12 09:48:20;;;;;;;16.17;5.97;;;;;;;10.16;88.16;99302.22;10294133;28;20061;-66
2023/12/12 09:53:23;;;;;;;14.65;6.82;;;;;;;10.10;87.97;99287.69;10311155;28;20493;-66
2023/12/12 09:58:26;;;;;;;14.02;5.72;;;;;;;10.04;88.71;99282.94;10300949;28;20060;-66
2023/12/12 10:03:32;;;;;;;19.58;6.07;;;;;;;10.08;88.37;99279.03;10301233;28;20078;-67
2023/12/12 10:08:35;;;;;;;17.02;6.40;;;;;;;10.16;88.60;99280.94;10291533;28;20057;-67
2023/12/12 10:13:58;;;;;;;19.50;6.18;;;;;;;10.14;88.06;99267.78;10301057;28;20050;-67
2023/12/12 10:19:01;;;;;;;14.45;6.72;;;;;;;10.22;88.27;99259.09;10280548;28;20609;-67
2023/12/12 10:24:03;;;;;;;15.77;6.28;;;;;;;10.22;88.10;99244.00;10292582;28;20057;-64
2023/12/12 10:29:05;;;;;;;20.77;8.93;;;;;;;10.20;87.44;99240.63;10291354;28;20061;-68
2023/12/12 10:34:07;;;;;;;29.48;9.30;;;;;;;10.20;87.58;99219.34;10289307;28;20081;-67
2023/12/12 10:39:12;;;;;;;17.75;8.88;;;;;;;10.26;87.88;99218.75;10314893;28;20549;-67
2023/12/12 10:44:15;;;;;;;19.88;9.07;;;;;;;10.33;87.27;99212.84;10278664;28;20061;-67
2023/12/12 10:49:18;;;;;;;17.38;7.93;;;;;;;10.42;86.42;99204.88;10280921;28;20204;-67
2023/12/12 10:54:22;;;;;;;19.55;7.60;;;;;;;10.43;85.88;99198.56;10301880;28;20161;-68
2023/12/12 10:59:25;;;;;;;19.13;7.20;;;;;;;10.21;85.92;99151.88;10286026;28;20055;-68
2023/12/12 11:04:47;;;;;;;13.15;8.18;;;;;;;10.45;85.79;99179.78;10295401;28;20770;-64
2023/12/12 11:09:50;;;;;;;20.33;7.05;;;;;;;10.45;86.00;99179.78;10300259;28;20061;-63
2023/12/12 11:14:55;;;;;;;;;;;;;;;10.47;85.80;99159.19;10301405;28;20162;-63
2023/12/12 11:19:56;;;;;;;16.38;7.95;;;;;;;10.44;85.92;99146.19;10301015;28;20037;-63
2023/12/12 11:25:01;;;;;;;18.48;7.70;;;;;;;10.46;85.82;99135.38;10291273;28;20404;-62
2023/12/12 11:30:02;;;;;;;17.77;7.20;;;;;;;10.46;86.28;99132.72;10312235;28;20158;-61
2023/12/12 11:35:07;;;;;;;16.67;7.10;;;;;;;10.50;85.82;99134.94;10291875;28;20312;-63
2023/12/12 11:40:10;;;;;;;17.88;7.75;;;;;;;10.51;86.09;99125.13;10295236;28;20042;-61
2023/12/12 11:45:28;;;;;;;13.00;7.55;;;;;;;10.47;86.67;99113.94;10291225;28;20061;-62
2023/12/12 11:50:31;;;;;;;16.45;6.63;;;;;;;10.53;86.87;99110.69;10292121;28;20241;-63
2023/12/12 11:55:33;;;;;;;20.63;8.00;;;;;;;10.42;86.99;99090.47;10298325;28;20050;-62
2023/12/12 12:00:36;;;;;;;17.73;7.20;;;;;;;10.44;86.99;99093.81;10290954;28;20058;-63
2023/12/12 12:05:38;;;;;;;18.47;8.53;;;;;;;10.46;87.74;99068.88;10293265;28;20062;-63
2023/12/12 12:10:39;;;;;;;14.63;7.80;;;;;;;10.47;88.89;99060.75;10277254;28;20141;-63
2023/12/12 12:15:48;;;;;;;18.65;7.63;;;;;;;10.49;89.78;99041.97;10283815;28;20152;-63
2023/12/12 12:20:49;;;;;;;16.90;7.45;;;;;;;10.40;92.32;99027.75;10306666;28;20929;-64
2023/12/12 12:25:56;;;;;;;11.80;6.15;;;;;;;10.38;93.12;99019.09;10299223;28;20122;-62
2023/12/12 12:30:58;;;;;;;15.95;7.38;;;;;;;10.29;95.10;99004.03;10286422;28;20050;-62
2023/12/12 12:36:02;;;;;;;15.68;6.75;;;;;;;10.31;95.89;98994.88;10296341;28;20096;-63
2023/12/12 12:41:20;;;;;;;13.20;6.93;;;;;;;10.30;96.79;98989.72;10300595;28;20141;-63
2023/12/12 12:46:22;;;;;;;13.30;6.47;;;;;;;10.42;96.55;98983.22;10295271;28;20050;-63
2023/12/12 12:51:25;;;;;;;15.75;7.63;;;;;;;10.48;96.20;98971.97;10297932;28;20061;-64
2023/12/12 12:56:26;;;;;;;15.45;7.15;;;;;;;10.46;96.68;98963.28;10297029;28;20058;-66
2023/12/12 13:01:28;;;;;;;18.08;9.18;;;;;;;10.33;98.18;98970.78;10284200;28;20105;-63
2023/12/12 13:06:29;;;;;;;14.25;5.93;;;;;;;10.35;98.41;98969.69;10303663;28;20144;-62
2023/12/12 13:11:32;;;;;;;14.55;7.70;;;;;;;10.35;99.12;98968.88;10292743;28;20141;-62
2023/12/12 13:16:35;;;;;;;10.60;7.50;;;;;;;10.33;100.00;98960.16;10290952;28;20054;-62
2023/12/12 13:21:37;;;;;;;13.52;7.40;;;;;;;10.31;100.00;98943.53;10290813;28;20061;-62
2023/12/12 13:26:39;;;;;;;12.00;7.75;;;;;;;10.30;100.00;98947.16;10295958;28;20076;-61
2023/12/12 13:31:41;;;;;;;14.23;7.57;;;;;;;10.23;100.00;98937.13;10298586;28;20522;-63
2023/12/12 13:36:43;;;;;;;11.90;6.72;;;;;;;10.26;100.00;98934.16;10293116;28;20457;-62
2023/12/12 13:41:46;;;;;;;9.02;6.47;;;;;;;10.30;100.00;98937.38;10278302;28;20056;-63
2023/12/12 13:46:57;;;;;;;9.73;6.07;;;;;;;10.42;100.00;98936.16;10295351;28;20042;-64
2023/12/12 13:51:58;;;;;;;11.80;6.15;;;;;;;10.52;100.00;98916.63;10279601;28;20071;-64
2023/12/12 13:57:00;;;;;;;10.57;5.65;;;;;;;10.51;100.00;98904.28;10290490;28;20402;-65
2023/12/12 14:02:02;;;;;;;11.20;7.05;;;;;;;10.49;100.00;98908.94;10291927;28;20595;-65
2023/12/12 14:07:03;;;;;;;9.25;5.93;;;;;;;10.43;100.00;98894.44;10294612;28;20045;-63
2023/12/12 14:12:06;;;;;;;9.27;5.78;;;;;;;10.47;100.00;98906.44;10298249;28;20469;-62
2023/12/12 14:17:07;;;;;;;8.20;4.38;;;;;;;10.35;100.00;98883.75;10296492;28;20064;-63
2023/12/12 14:22:09;;;;;;;6.57;4.50;;;;;;;10.45;100.00;98903.09;10297423;28;20058;-63
2023/12/12 14:27:15;;;;;;;7.43;3.85;;;;;;;10.39;100.00;98903.72;10300038;28;20061;-63
2023/12/12 14:32:17;;;;;;;7.03;4.10;;;;;;;10.39;100.00;98893.91;10283719;28;20087;-63
2023/12/12 14:37:20;;;;;;;7.32;4.13;;;;;;;10.29;100.00;98869.22;10292875;28;20054;-62
2023/12/12 14:42:23;;;;;;;6.78;3.85;;;;;;;10.33;100.00;98864.41;10288056;28;20555;-61
2023/12/12 14:47:24;;;;;;;7.78;4.43;;;;;;;10.36;100.00;98870.28;10282819;28;20073;-63
2023/12/12 14:52:26;;;;;;;4.25;3.75;;;;;;;10.35;100.00;98868.63;10301931;28;20764;-63
2023/12/12 14:57:27;;;;;;;6.35;4.40;;;;;;;10.35;100.00;98862.47;10310559;28;20064;-62
2023/12/12 15:02:30;;;;;;;4.68;3.95;;;;;;;10.38;100.00;98870.13;10293174;28;20141;-62
2023/12/12 15:07:32;;;;;;;6.28;3.92;;;;;;;10.39;100.00;98847.88;10300571;28;20058;-63
2023/12/12 15:12:34;;;;;;;4.82;3.33;;;;;;;10.44;100.00;98842.91;10312140;28;20141;-66
2023/12/12 15:17:38;;;;;;;;;;;;;;;10.39;100.00;98818.63;10281653;28;20052;-66
2023/12/12 15:22:41;;;;;;;5.40;3.42;;;;;;;10.46;100.00;98824.13;10296478;28;19929;-65
2023/12/12 15:27:44;;;;;;;6.30;3.88;;;;;;;10.44;100.00;98821.63;10291767;28;20524;-65
2023/12/12 15:33:10;;;;;;;6.68;4.35;;;;;;;10.47;100.00;98823.97;10295374;28;20050;-64
2023/12/12 15:38:12;;;;;;;7.15;4.13;;;;;;;10.49;100.00;98811.34;10295194;28;20070;-66
2023/12/12 15:43:15;;;;;;;5.53;3.95;;;;;;;10.52;100.00;98807.53;10301682;28;20067;-64
2023/12/12 15:48:18;;;;;;;5.13;4.60;;;;;;;10.44;100.00;98795.03;10313093;28;20050;-65
2023/12/12 15:53:19;;;;;;;5.00;4.30;;;;;;;10.42;100.00;98765.91;10291364;28;20054;-65
2023/12/12 15:58:22;;;;;;;8.90;5.05;;;;;;;10.54;100.00;98768.31;10300430;28;20154;-66
2023/12/12 16:03:24;;;;;;;7.22;4.88;;;;;;;10.50;100.00;98762.47;10300779;28;20069;-67
2023/12/12 16:08:32;;;;;;;8.45;5.93;;;;;;;10.60;100.00;98767.66;10299221;28;20930;-65
2023/12/12 16:13:35;;;;;;;9.30;5.78;;;;;;;10.60;100.00;98763.16;10320184;28;20060;-65
2023/12/12 16:18:39;;;;;;;7.57;5.95;;;;;;;10.65;100.00;98756.53;10292442;28;20065;-68
2023/12/12 16:23:40;;;;;;;8.95;5.93;;;;;;;10.69;100.00;98744.56;10297195;28;20210;-66
2023/12/12 16:28:43;;;;;;;8.70;5.97;;;;;;;10.66;100.00;98748.41;10287404;28;20062;-66
2023/12/12 16:33:44;;;;;;;10.30;6.28;;;;;;;10.57;100.00;98726.25;10308772;28;20165;-67
2023/12/12 16:38:51;;;;;;;11.43;6.68;;;;;;;10.64;100.00;98745.03;10290669;28;20050;-66
2023/12/12 16:43:52;;;;;;;12.52;7.35;;;;;;;10.57;100.00;98736.88;10292205;28;20108;-67
2023/12/12 16:48:55;;;;;;;8.93;6.30;;;;;;;10.66;100.00;98720.94;10278175;28;20059;-71
2023/12/12 16:53:59;;;;;;;11.65;6.75;;;;;;;10.69;100.00;98718.81;10293309;28;20125;-67
2023/12/12 16:59:01;;;;;;;11.73;8.82;;;;;;;10.69;100.00;98717.94;10292291;28;20401;-68
2023/12/12 17:04:04;;;;;;;14.80;8.98;;;;;;;10.71;100.00;98708.81;10285515;28;20732;-65
2023/12/12 17:09:08;;;;;;;14.33;9.53;;;;;;;10.77;100.00;98718.00;10291841;28;20065;-66
2023/12/12 17:14:09;;;;;;;15.93;10.23;;;;;;;10.80;100.00;98722.97;10298283;28;20460;-66
2023/12/12 17:19:12;;;;;;;20.30;12.93;;;;;;;10.72;100.00;98704.31;10298193;28;20062;-66
2023/12/12 17:24:14;;;;;;;20.23;12.85;;;;;;;10.79;100.00;98718.66;10292296;28;20583;-66
2023/12/12 17:29:15;;;;;;;18.42;11.93;;;;;;;10.67;100.00;98703.97;10284665;28;20526;-65
2023/12/12 17:34:25;;;;;;;14.95;11.38;;;;;;;10.85;100.00;98707.34;10295314;28;20736;-67
2023/12/12 17:39:26;;;;;;;17.38;13.50;;;;;;;10.87;100.00;98710.69;10293574;28;20054;-66
2023/12/12 17:44:31;;;;;;;16.40;12.98;;;;;;;10.92;100.00;98712.88;10297924;28;20622;-67
2023/12/12 17:49:33;;;;;;;18.70;14.20;;;;;;;10.85;100.00;98723.31;10301513;28;20042;-66
2023/12/12 17:54:35;;;;;;;16.20;12.38;;;;;;;10.76;100.00;98711.00;10296462;28;20086;-67
2023/12/12 17:59:36;;;;;;;15.85;13.15;;;;;;;10.76;100.00;98695.03;10301772;28;20053;-65
2023/12/12 18:04:38;;;;;;;16.27;12.65;;;;;;;10.80;100.00;98693.72;10307387;28;20082;-66
2023/12/12 18:09:42;;;;;;;14.68;12.55;;;;;;;10.81;100.00;98690.06;10288861;28;20042;-67
2023/12/12 18:14:43;;;;;;;17.13;13.02;;;;;;;10.75;100.00;98680.06;10304056;28;20055;-68
2023/12/12 18:19:45;;;;;;;15.57;12.80;;;;;;;10.71;100.00;98646.78;10299293;28;20047;-67
2023/12/12 18:24:46;;;;;;;16.48;12.55;;;;;;;10.78;100.00;98634.50;10293419;28;20062;-67
2023/12/12 18:29:48;;;;;;;15.65;12.18;;;;;;;10.86;100.00;98634.50;10298600;28;20057;-67
2023/12/12 18:34:50;;;;;;;15.80;12.25;;;;;;;10.84;100.00;98636.50;10289663;28;20050;-65
2023/12/12 18:39:52;;;;;;;14.32;12.25;;;;;;;10.87;100.00;98625.50;10289126;28;20177;-67
2023/12/12 18:44:53;;;;;;;14.93;12.20;;;;;;;10.87;100.00;98625.50;10296326;28;20078;-67
2023/12/12 18:49:56;;;;;;;15.75;12.75;;;;;;;10.91;100.00;98634.84;10302060;28;20061;-66
2023/12/12 18:54:58;;;;;;;15.52;11.80;;;;;;;10.78;100.00;98606.03;10327225;28;20102;-65
2023/12/12 18:59:59;;;;;;;13.93;12.43;;;;;;;10.86;100.00;98629.16;10329705;28;20054;-66
2023/12/12 19:05:01;;;;;;;14.57;11.50;;;;;;;10.89;100.00;98628.00;10332943;28;20050;-67
2023/12/12 19:10:06;;;;;;;14.98;11.90;;;;;;;10.95;100.00;98630.81;10312791;28;20050;-67
2023/12/12 19:15:09;;;;;;;14.40;12.13;;;;;;;10.87;100.00;98616.69;10322610;28;20165;-66
2023/12/12 19:20:11;;;;;;;15.30;13.17;;;;;;;10.95;100.00;98614.84;10304567;28;20078;-67
2023/12/12 19:25:14;;;;;;;16.20;13.43;;;;;;;10.94;100.00;98607.03;10325603;28;20085;-66
2023/12/12 19:30:16;;;;;;;13.95;11.88;;;;;;;10.98;100.00;98589.75;10302842;28;20046;-65
2023/12/12 19:35:22;;;;;;;13.48;12.02;;;;;;;11.02;100.00;98580.44;10302243;28;20062;-66
2023/12/12 19:40:26;;;;;;;15.52;12.88;;;;;;;11.03;100.00;98578.59;10292884;28;20085;-66
2023/12/12 19:45:28;;;;;;;16.63;13.10;;;;;;;11.07;100.00;98571.94;10299025;28;20050;-66
2023/12/12 19:50:30;;;;;;;15.32;12.70;;;;;;;11.10;100.00;98571.59;10292730;28;20054;-66
2023/12/12 19:55:33;;;;;;;15.32;12.68;;;;;;;11.13;100.00;98571.25;10301182;28;20057;-66
2023/12/12 20:00:34;;;;;;;15.93;13.13;;;;;;;11.14;100.00;98567.59;10305522;28;20069;-65
2023/12/12 20:05:37;;;;;;;15.77;13.15;;;;;;;11.23;100.00;98565.75;10281893;28;20058;-67
2023/12/12 20:10:39;;;;;;;19.23;15.15;;;;;;;11.33;100.00;98577.03;10288851;28;20046;-66
2023/12/12 20:15:42;;;;;;;17.23;12.82;;;;;;;10.88;100.00;98627.16;10297267;28;20062;-65
2023/12/12 20:20:43;;;;;;;14.65;10.63;;;;;;;10.64;100.00;98605.84;10287773;28;20128;-65
2023/12/12 20:25:45;;;;;;;7.18;5.80;;;;;;;10.73;100.00;98599.53;10308685;28;20052;-67
2023/12/12 20:30:48;;;;;;;8.95;5.30;;;;;;;10.86;100.00;98585.75;10290140;28;20046;-66
2023/12/12 20:35:49;;;;;;;6.03;4.43;;;;;;;10.79;100.00;98582.91;10289676;28;20064;-67
2023/12/12 20:40:51;;;;;;;6.38;4.15;;;;;;;10.85;100.00;98582.25;10274469;28;20053;-66
2023/12/12 20:45:53;;;;;;;8.38;6.65;;;;;;;10.90;100.00;98555.13;10292359;28;20524;-66
2023/12/12 20:50:54;;;;;;;8.18;6.15;;;;;;;10.90;100.00;98544.47;10295431;28;20096;-66
2023/12/12 20:55:56;;;;;;;5.47;4.55;;;;;;;10.92;100.00;98556.63;10300318;28;20049;-66
2023/12/12 21:01:04;;;;;;;9.85;6.38;;;;;;;10.83;100.00;98543.50;10304624;28;20062;-67
2023/12/12 21:06:09;;;;;;;5.40;4.40;;;;;;;10.80;100.00;98552.66;10284014;28;20070;-66
2023/12/12 21:11:14;;;;;;;4.70;3.67;;;;;;;10.84;100.00;98561.97;10291953;28;20711;-64
2023/12/12 21:16:17;;;;;;;5.30;4.43;;;;;;;10.70;100.00;98559.94;10293290;28;20132;-67
2023/12/12 21:21:19;;;;;;;6.28;5.68;;;;;;;10.71;100.00;98575.75;10295593;28;20057;-66
2023/12/12 21:26:20;;;;;;;3.85;3.10;;;;;;;10.70;100.00;98567.94;10295626;28;21185;-66
2023/12/12 21:31:22;;;;;;;4.38;3.03;;;;;;;10.63;100.00;98562.47;10301331;28;20101;-65
2023/12/12 21:36:23;;;;;;;3.90;2.58;;;;;;;10.57;100.00;98558.63;10296142;28;20080;-65
2023/12/12 21:41:30;;;;;;;3.03;2.60;;;;;;;10.55;100.00;98568.59;10301053;28;20050;-68
2023/12/12 21:46:32;;;;;;;4.68;2.95;;;;;;;10.50;100.00;98554.94;10300440;28;20069;-66
2023/12/12 21:51:33;;;;;;;3.72;3.13;;;;;;;10.52;100.00;98568.91;10303914;28;20050;-65
2023/12/12 21:56:35;;;;;;;3.33;3.00;;;;;;;10.56;100.00;98554.28;10296561;28;20512;-66
2023/12/12 22:01:37;;;;;;;3.28;2.88;;;;;;;10.54;100.00;98561.63;10299716;28;20188;-66
2023/12/12 22:06:39;;;;;;;4.47;3.90;;;;;;;10.43;100.00;98559.25;10296262;28;20053;-66
2023/12/12 22:11:41;;;;;;;5.05;4.22;;;;;;;10.54;100.00;98564.28;10296196;28;20660;-65
2023/12/12 22:16:42;;;;;;;4.45;3.25;;;;;;;10.45;100.00;98562.59;10292637;28;20058;-66
2023/12/12 22:21:44;;;;;;;5.03;3.90;;;;;;;10.51;100.00;98561.94;10294454;28;20064;-65
2023/12/12 22:26:47;;;;;;;5.30;4.70;;;;;;;10.52;100.00;98562.75;10297309;28;20136;-66
2023/12/12 22:31:48;;;;;;;6.32;4.60;;;;;;;10.49;100.00;98555.94;10297669;28;20583;-65
2023/12/12 22:36:51;;;;;;;7.13;5.80;;;;;;;10.50;100.00;98560.28;10293782;28;20046;-65
2023/12/12 22:41:54;;;;;;;7.28;5.63;;;;;;;10.42;100.00;98560.28;10301420;28;20162;-66
2023/12/12 22:46:58;;;;;;;7.80;6.35;;;;;;;10.38;100.00;98572.22;10293622;28;20064;-68
2023/12/12 22:51:59;;;;;;;7.63;6.78;;;;;;;10.30;100.00;98565.03;10304043;28;20065;-66
2023/12/12 22:57:01;;;;;;;7.60;6.53;;;;;;;10.26;100.00;98569.84;10299233;28;20077;-66
2023/12/12 23:02:02;;;;;;;6.53;5.85;;;;;;;10.18;100.00;98566.34;10301275;28;20613;-65
2023/12/12 23:07:06;;;;;;;9.32;8.43;;;;;;;10.16;100.00;98547.03;10297447;28;20066;-65
2023/12/12 23:12:08;;;;;;;9.00;8.10;;;;;;;10.25;100.00;98562.00;10295907;28;20627;-66